Aérodrome :
LOGIN :

S'inscrire | Disclaimer

   EN    FR    IT 

 










Légende :    VFR   VFR Marginal   IFR   IFR Intensif   IFR Très Intensif
Visi : 
Plafond : 
>= 8 km
>= 3000ft
5 à 8 km
1000 à 3000 ft
1500m à 5 km
500 à 1000 ft
800 à 1500m
200 à 500 ft
< 800m
< 200 ft
Symboles :   Orages  Brouillard  Fortes neiges  Fortes précipitations  Vent > 20 kt
SIGMETs :   Divers  Orages  Givrage  Turbulence  Onde Orograph.  Cendres Volcan.







- Altitude de l'aérodrome : 348 ft
- Code IATA : STN
- Voir les cartes d'approche


EGSS - London Stansted

DERNIER METAR :
  • 201850Z AUTO 25006KT 5000 BR OVC003 12/11 Q1012

METARs EXPIRÉS :
  • 201820Z AUTO 26007KT 4200 -RADZ BKN005 BKN010 OVC028 12/11 Q1012
  • 201750Z AUTO 24011KT 9999 OVC010 12/10 Q1012
  • 201720Z AUTO 25009KT 9999 OVC009 12/10 Q1012
  • 201650Z AUTO 25011KT 9999 OVC008 12/10 Q1011
  • 201620Z AUTO 24011KT 9999 BKN009 OVC012 11/10 Q1011

TAF AMD TAF EGSS
Valide du 20 à 18h jusqu'au 22 à 00h UTC


201832Z 2018/2124 23012KT 9999 BKN008
TEMPO 2018/2020 4000 DZ BR BKN004
BECMG 2020/2022 3000 -DZ BR BKN004
TEMPO 2022/2108 1200 DZ
PROB30
TEMPO 2022/2108 0600 FG BKN001
BECMG 2108/2110 9999 NSW FEW008 SCT020
TEMPO 2110/2112 BKN008
TEMPO 2121/2124 23015G25KT BKN008
ATIS : +44 1279 669 325
Pas de NOTAMs connus pour ce terrain.



MET'MAP, la Météo Aéronautique d'un coup d'oeil ! - Copyright ORBIFLY Décembre 2007 - Disclaimer

ORBIFLY MET'MAP TEAM :

Programmation & Développement : Alexandra Zaïnal
Conception & Développement : Baudouin d'Aumeries
Co-Programmation & Développement : Marc-Olivier Méhu
Soutien technique & logistique : Manuel Goepfert

Contact : metmap@orbifly.com




SOURCES & CREDITS :

   NOAA